createdAt,value
2019-01-28T00:00:22.116Z,3
2019-01-28T00:05:24.562Z,4
2019-01-28T00:10:27.056Z,3
2019-01-28T00:15:29.489Z,2
2019-01-28T00:20:31.931Z,3
2019-01-28T00:25:34.380Z,3
2019-01-28T00:30:36.849Z,2
2019-01-28T00:35:39.317Z,3
2019-01-28T00:40:41.750Z,3
2019-01-28T00:45:44.241Z,3
2019-01-28T00:50:46.676Z,3
2019-01-28T00:55:49.143Z,2
2019-01-28T01:00:51.586Z,3
2019-01-28T01:05:54.029Z,3
2019-01-28T01:10:56.793Z,3
2019-01-28T01:15:59.026Z,3
2019-01-28T01:21:01.455Z,3
2019-01-28T01:26:03.867Z,2
2019-01-28T01:31:06.323Z,1
2019-01-28T01:36:08.777Z,1
2019-01-28T01:41:11.243Z,0
2019-01-28T01:46:13.690Z,0
2019-01-28T01:51:16.226Z,0
2019-01-28T01:56:18.615Z,1
2019-01-28T02:01:21.063Z,1
2019-01-28T02:06:23.522Z,1
2019-01-28T02:11:25.975Z,2
2019-01-28T02:16:28.467Z,2
2019-01-28T02:21:30.884Z,2
2019-01-28T02:26:33.367Z,2
2019-01-28T02:31:35.812Z,3
2019-01-28T02:36:38.270Z,2
2019-01-28T02:41:40.763Z,1
2019-01-28T02:46:43.173Z,2
2019-01-28T02:51:45.633Z,1
2019-01-28T02:56:48.122Z,2
2019-01-28T03:01:50.599Z,2
2019-01-28T03:06:53.014Z,2
2019-01-28T03:11:55.465Z,2
2019-01-28T03:16:57.921Z,2
2019-01-28T03:22:00.425Z,2
2019-01-28T03:27:02.853Z,2
2019-01-28T03:32:05.308Z,2
2019-01-28T03:37:07.768Z,2
2019-01-28T03:42:10.205Z,2
2019-01-28T03:47:12.668Z,2
2019-01-28T03:52:15.126Z,1
2019-01-28T03:57:17.626Z,2
2019-01-28T04:02:20.044Z,3
2019-01-28T04:07:22.479Z,3
2019-01-28T04:12:24.947Z,2
2019-01-28T04:17:27.417Z,2
2019-01-28T04:22:29.884Z,2
2019-01-28T04:27:32.364Z,1
2019-01-28T04:32:34.814Z,1
2019-01-28T04:37:37.258Z,2
2019-01-28T04:42:39.708Z,1
2019-01-28T04:47:42.161Z,1
2019-01-28T04:52:44.632Z,1
2019-01-28T04:57:47.105Z,1
2019-01-28T05:02:49.781Z,1
2019-01-28T05:07:52.014Z,1
2019-01-28T05:12:54.461Z,1
2019-01-28T05:17:56.934Z,1
2019-01-28T05:22:59.392Z,1
2019-01-28T05:28:01.915Z,2
2019-01-28T05:33:04.403Z,2
2019-01-28T05:38:06.813Z,1
2019-01-28T05:43:09.243Z,1
2019-01-28T05:48:11.725Z,1
2019-01-28T05:53:14.178Z,1
2019-01-28T05:58:16.635Z,1
2019-01-28T06:03:19.105Z,1
2019-01-28T06:08:21.595Z,2
2019-01-28T06:13:24.038Z,1
2019-01-28T06:18:26.483Z,1
2019-01-28T06:23:28.965Z,2
2019-01-28T06:28:31.429Z,2
2019-01-28T06:33:33.888Z,2
2019-01-28T06:38:36.343Z,2
2019-01-28T06:43:38.886Z,3
2019-01-28T06:48:41.386Z,2
2019-01-28T06:53:43.735Z,2
2019-01-28T06:58:46.252Z,1
2019-01-28T07:03:48.680Z,2
2019-01-28T07:08:51.156Z,2
2019-01-28T07:13:53.610Z,2
2019-01-28T07:18:56.095Z,2
2019-01-28T07:23:58.528Z,2
2019-01-28T07:29:01.041Z,2
2019-01-28T07:34:03.467Z,2
2019-01-28T07:39:05.926Z,1
2019-01-28T07:44:08.408Z,2
2019-01-28T07:49:10.966Z,1
2019-01-28T07:54:13.316Z,1
2019-01-28T07:59:15.786Z,1
2019-01-28T08:04:18.268Z,1
2019-01-28T08:09:20.706Z,1
2019-01-28T08:14:23.203Z,1
2019-01-28T08:19:25.647Z,1
2019-01-28T08:24:28.079Z,1
2019-01-28T08:29:30.564Z,2
2019-01-28T08:34:33.010Z,1
2019-01-28T08:39:35.484Z,1
2019-01-28T08:44:37.909Z,1
2019-01-28T08:49:40.411Z,1
2019-01-28T08:54:42.821Z,2
2019-01-28T08:59:45.289Z,1
2019-01-28T09:04:47.776Z,1
2019-01-28T09:09:50.185Z,1
2019-01-28T09:14:52.652Z,1
2019-01-28T09:19:55.097Z,1
2019-01-28T09:24:57.565Z,1
2019-01-28T09:30:00.259Z,1
2019-01-28T09:35:02.515Z,1
2019-01-28T09:40:04.940Z,1
2019-01-28T09:45:07.417Z,1
2019-01-28T09:50:09.845Z,1
2019-01-28T09:55:12.304Z,1
2019-01-28T10:00:14.827Z,1
2019-01-28T10:05:17.207Z,2
2019-01-28T10:10:19.686Z,1
2019-01-28T10:15:22.251Z,2
2019-01-28T10:20:24.700Z,1
2019-01-28T10:25:27.032Z,1
2019-01-28T10:30:29.499Z,1
2019-01-28T10:35:31.950Z,1
2019-01-28T10:40:34.412Z,1
2019-01-28T10:45:36.944Z,1
2019-01-28T10:50:39.339Z,1
2019-01-28T10:55:41.810Z,1
2019-01-28T11:00:44.262Z,1
2019-01-28T11:05:46.708Z,1
2019-01-28T11:10:49.265Z,1
2019-01-28T11:15:51.733Z,1
2019-01-28T11:20:54.086Z,1
2019-01-28T11:25:56.568Z,1
2019-01-28T11:30:59.051Z,1
2019-01-28T11:36:05.228Z,2
2019-01-28T11:41:04.020Z,1
2019-01-28T11:46:06.555Z,1
2019-01-28T11:51:08.836Z,0
2019-01-28T11:56:11.263Z,1
2019-01-28T12:01:13.739Z,1
2019-01-28T12:06:16.333Z,1
2019-01-28T12:11:18.666Z,1
2019-01-28T12:16:21.124Z,1
2019-01-28T12:21:23.577Z,1
2019-01-28T12:26:26.025Z,1
2019-01-28T12:31:28.559Z,1
2019-01-28T12:36:30.927Z,1
2019-01-28T12:41:33.429Z,1
2019-01-28T12:46:35.887Z,0
2019-01-28T12:51:38.342Z,1
2019-01-28T12:56:40.761Z,1
2019-01-28T13:01:43.229Z,1
2019-01-28T13:06:45.692Z,1
2019-01-28T13:11:48.156Z,5
2019-01-28T13:16:50.598Z,1
2019-01-28T13:21:53.040Z,0
2019-01-28T13:26:55.503Z,0
2019-01-28T13:31:58.001Z,1
2019-01-28T13:37:00.472Z,1
2019-01-28T13:42:02.920Z,1
2019-01-28T13:47:05.373Z,1
2019-01-28T13:52:07.800Z,1
2019-01-28T13:57:10.311Z,1
2019-01-28T14:02:12.757Z,1
2019-01-28T14:07:15.157Z,1
2019-01-28T14:12:17.633Z,1
2019-01-28T14:17:20.069Z,1
2019-01-28T14:22:22.544Z,2
2019-01-28T14:27:24.992Z,2
2019-01-28T14:32:27.475Z,1
2019-01-28T14:37:29.941Z,1
2019-01-28T14:42:32.405Z,1
2019-01-28T14:47:34.849Z,1
2019-01-28T14:52:37.272Z,1
2019-01-28T14:57:39.724Z,1
2019-01-28T15:02:42.187Z,1
2019-01-28T15:07:44.671Z,3
2019-01-28T15:12:47.728Z,1
2019-01-28T15:17:49.613Z,2
2019-01-28T15:22:52.004Z,1
2019-01-28T15:27:54.476Z,1
2019-01-28T15:32:56.979Z,1
2019-01-28T15:37:59.460Z,1
2019-01-28T15:43:01.835Z,1
2019-01-28T15:48:04.319Z,1
2019-01-28T15:53:07.040Z,1
2019-01-28T15:58:09.350Z,1
2019-01-28T16:03:11.676Z,1
2019-01-28T16:08:14.115Z,2
2019-01-28T16:13:16.591Z,1
2019-01-28T16:18:19.027Z,1
2019-01-28T16:23:21.508Z,3
2019-01-28T16:28:23.968Z,1
2019-01-28T16:33:26.422Z,2
2019-01-28T16:38:28.866Z,1
2019-01-28T16:43:31.378Z,1
2019-01-28T16:48:33.805Z,1
2019-01-28T16:53:36.255Z,1
2019-01-28T16:58:38.750Z,1
2019-01-28T17:03:41.205Z,1
2019-01-28T17:08:43.625Z,5
2019-01-28T17:13:46.079Z,1
2019-01-28T17:18:48.524Z,1
2019-01-28T17:23:50.981Z,1
2019-01-28T17:28:53.480Z,1
2019-01-28T17:33:55.947Z,2
2019-01-28T17:38:58.399Z,2
2019-01-28T17:44:00.840Z,2
2019-01-28T17:49:03.272Z,1
2019-01-28T17:54:05.737Z,3
2019-01-28T17:59:08.195Z,2
2019-01-28T18:09:13.160Z,2
2019-01-28T18:14:15.572Z,0
2019-01-28T18:19:18.024Z,0
2019-01-28T18:24:20.507Z,8
2019-01-28T18:29:22.951Z,0
2019-01-28T18:34:25.379Z,1
2019-01-28T18:39:27.868Z,0
2019-01-28T18:44:30.300Z,1
2019-01-28T18:49:32.754Z,0
2019-01-28T18:54:35.222Z,3
2019-01-28T18:59:37.677Z,1
2019-01-28T19:04:40.131Z,1
2019-01-28T19:09:42.595Z,1
2019-01-28T19:14:45.059Z,2
2019-01-28T19:19:47.507Z,2
2019-01-28T19:24:49.966Z,2
2019-01-28T19:29:52.473Z,3
2019-01-28T19:34:55.026Z,2
2019-01-28T19:39:57.355Z,2
2019-01-28T19:44:59.806Z,2
2019-01-28T19:50:02.318Z,3
2019-01-28T19:55:04.760Z,3
2019-01-28T20:00:07.305Z,3
2019-01-28T20:05:09.659Z,4
2019-01-28T20:10:12.162Z,3
2019-01-28T20:15:14.572Z,2
2019-01-28T20:20:17.073Z,3
2019-01-28T20:25:19.545Z,3
2019-01-28T20:30:22.007Z,5
2019-01-28T20:35:24.450Z,2
2019-01-28T20:40:26.881Z,2
2019-01-28T20:45:29.370Z,3
2019-01-28T20:50:31.832Z,2
2019-01-28T20:55:34.331Z,3
2019-01-28T21:00:36.739Z,2
2019-01-28T21:05:39.206Z,3
2019-01-28T21:10:41.718Z,3
2019-01-28T21:15:44.150Z,3
2019-01-28T21:20:46.636Z,2
2019-01-28T21:25:49.061Z,2
2019-01-28T21:30:51.566Z,3
2019-01-28T21:35:53.995Z,3
2019-01-28T21:40:56.472Z,2
2019-01-28T21:45:58.921Z,2
2019-01-28T21:51:01.386Z,3
2019-01-28T21:56:03.860Z,3
2019-01-28T22:01:06.309Z,3
2019-01-28T22:06:08.765Z,3
2019-01-28T22:11:11.240Z,4
2019-01-28T22:16:13.951Z,5
2019-01-28T22:21:16.504Z,6
2019-01-28T22:26:18.613Z,6
2019-01-28T22:31:21.075Z,6
2019-01-28T22:36:23.541Z,4
2019-01-28T22:41:26.034Z,6
2019-01-28T22:46:28.465Z,5
2019-01-28T22:51:30.996Z,5
2019-01-28T22:56:33.410Z,5
2019-01-28T23:01:35.858Z,5
2019-01-28T23:06:38.326Z,6
2019-01-28T23:11:40.825Z,5
2019-01-28T23:16:43.262Z,4
2019-01-28T23:21:45.710Z,4
2019-01-28T23:26:48.209Z,4
2019-01-28T23:31:50.629Z,4
2019-01-28T23:36:53.105Z,2
2019-01-28T23:41:55.565Z,2
2019-01-28T23:46:58.020Z,2
2019-01-28T23:52:00.492Z,2
2019-01-28T23:57:02.993Z,3
